sensor_id;sensor_type;location;lat;lon;timestamp;temperature;humidity
6008;DHT22;3032;49.484;11.112;2023-07-31T00:00:32;19.20;99.90
6008;DHT22;3032;49.484;11.112;2023-07-31T00:02:58;19.20;99.90
6008;DHT22;3032;49.484;11.112;2023-07-31T00:05:23;19.30;99.90
6008;DHT22;3032;49.484;11.112;2023-07-31T00:07:49;19.20;99.90
6008;DHT22;3032;49.484;11.112;2023-07-31T00:10:14;19.80;99.90
6008;DHT22;3032;49.484;11.112;2023-07-31T00:12:42;19.50;99.90
6008;DHT22;3032;49.484;11.112;2023-07-31T00:15:08;19.30;99.90
6008;DHT22;3032;49.484;11.112;2023-07-31T00:17:34;19.20;99.90
6008;DHT22;3032;49.484;11.112;2023-07-31T00:20:00;19.20;99.90
6008;DHT22;3032;49.484;11.112;2023-07-31T00:22:25;19.20;99.90
6008;DHT22;3032;49.484;11.112;2023-07-31T00:24:51;19.20;99.90
6008;DHT22;3032;49.484;11.112;2023-07-31T00:27:16;19.20;99.90
6008;DHT22;3032;49.484;11.112;2023-07-31T00:29:42;19.20;99.90
6008;DHT22;3032;49.484;11.112;2023-07-31T00:32:08;19.20;99.90
6008;DHT22;3032;49.484;11.112;2023-07-31T00:34:33;19.20;99.90
6008;DHT22;3032;49.484;11.112;2023-07-31T00:36:59;19.20;99.90
6008;DHT22;3032;49.484;11.112;2023-07-31T00:39:24;19.20;99.90
6008;DHT22;3032;49.484;11.112;2023-07-31T00:41:50;19.40;99.90
6008;DHT22;3032;49.484;11.112;2023-07-31T00:44:15;19.10;99.90
6008;DHT22;3032;49.484;11.112;2023-07-31T00:46:41;19.30;99.90
6008;DHT22;3032;49.484;11.112;2023-07-31T00:49:07;19.20;99.90
6008;DHT22;3032;49.484;11.112;2023-07-31T00:51:33;19.10;99.90
6008;DHT22;3032;49.484;11.112;2023-07-31T00:53:59;19.10;99.90
6008;DHT22;3032;49.484;11.112;2023-07-31T00:56:26;19.10;99.90
6008;DHT22;3032;49.484;11.112;2023-07-31T00:58:52;19.20;99.90
6008;DHT22;3032;49.484;11.112;2023-07-31T01:01:18;19.30;99.90
6008;DHT22;3032;49.484;11.112;2023-07-31T01:03:43;19.50;99.90
6008;DHT22;3032;49.484;11.112;2023-07-31T01:06:14;19.20;99.90
6008;DHT22;3032;49.484;11.112;2023-07-31T01:11:31;19.30;99.90
6008;DHT22;3032;49.484;11.112;2023-07-31T01:13:58;19.90;99.90
6008;DHT22;3032;49.484;11.112;2023-07-31T01:16:25;19.60;99.90
6008;DHT22;3032;49.484;11.112;2023-07-31T01:18:52;19.70;99.90
6008;DHT22;3032;49.484;11.112;2023-07-31T01:24:20;19.70;99.90
6008;DHT22;3032;49.484;11.112;2023-07-31T01:26:58;19.70;99.90
6008;DHT22;3032;49.484;11.112;2023-07-31T01:32:02;19.80;99.90
6008;DHT22;3032;49.484;11.112;2023-07-31T01:34:29;20.30;99.90
6008;DHT22;3032;49.484;11.112;2023-07-31T01:36:56;19.70;99.90
6008;DHT22;3032;49.484;11.112;2023-07-31T01:39:22;19.70;99.90
6008;DHT22;3032;49.484;11.112;2023-07-31T01:41:48;19.80;99.90
6008;DHT22;3032;49.484;11.112;2023-07-31T01:44:13;19.70;99.90
6008;DHT22;3032;49.484;11.112;2023-07-31T01:46:39;20.20;99.90
6008;DHT22;3032;49.484;11.112;2023-07-31T01:49:06;19.80;99.90
6008;DHT22;3032;49.484;11.112;2023-07-31T01:51:31;20.00;99.90
6008;DHT22;3032;49.484;11.112;2023-07-31T01:54:01;20.30;99.90
6008;DHT22;3032;49.484;11.112;2023-07-31T01:56:26;20.00;99.90
6008;DHT22;3032;49.484;11.112;2023-07-31T01:58:52;19.70;99.90
6008;DHT22;3032;49.484;11.112;2023-07-31T02:01:17;20.00;99.90
6008;DHT22;3032;49.484;11.112;2023-07-31T02:03:43;19.30;99.90
6008;DHT22;3032;49.484;11.112;2023-07-31T02:06:09;19.40;99.90
6008;DHT22;3032;49.484;11.112;2023-07-31T02:08:34;19.50;99.90
6008;DHT22;3032;49.484;11.112;2023-07-31T02:11:00;19.40;99.90
6008;DHT22;3032;49.484;11.112;2023-07-31T02:13:25;19.30;99.90
6008;DHT22;3032;49.484;11.112;2023-07-31T02:15:51;19.20;99.90
6008;DHT22;3032;49.484;11.112;2023-07-31T02:18:17;19.20;99.90
6008;DHT22;3032;49.484;11.112;2023-07-31T02:20:42;19.80;99.90
6008;DHT22;3032;49.484;11.112;2023-07-31T02:23:08;19.20;99.90
6008;DHT22;3032;49.484;11.112;2023-07-31T02:25:34;18.70;99.90
6008;DHT22;3032;49.484;11.112;2023-07-31T02:27:59;19.00;99.90
6008;DHT22;3032;49.484;11.112;2023-07-31T02:30:25;19.20;99.90
6008;DHT22;3032;49.484;11.112;2023-07-31T02:32:50;19.20;99.90
6008;DHT22;3032;49.484;11.112;2023-07-31T02:35:16;19.10;99.90
6008;DHT22;3032;49.484;11.112;2023-07-31T02:37:42;19.20;99.90
6008;DHT22;3032;49.484;11.112;2023-07-31T02:40:08;19.20;99.90
6008;DHT22;3032;49.484;11.112;2023-07-31T02:42:34;19.20;99.90
6008;DHT22;3032;49.484;11.112;2023-07-31T02:44:59;19.50;99.90
6008;DHT22;3032;49.484;11.112;2023-07-31T02:47:25;19.10;99.90
6008;DHT22;3032;49.484;11.112;2023-07-31T02:49:50;18.70;99.90
6008;DHT22;3032;49.484;11.112;2023-07-31T02:52:16;18.60;99.90
6008;DHT22;3032;49.484;11.112;2023-07-31T02:54:42;18.60;99.90
6008;DHT22;3032;49.484;11.112;2023-07-31T02:57:07;18.20;99.90
6008;DHT22;3032;49.484;11.112;2023-07-31T02:59:33;17.90;99.90
6008;DHT22;3032;49.484;11.112;2023-07-31T03:01:58;17.70;99.90
6008;DHT22;3032;49.484;11.112;2023-07-31T03:04:24;17.70;99.90
6008;DHT22;3032;49.484;11.112;2023-07-31T03:06:49;17.90;99.90
6008;DHT22;3032;49.484;11.112;2023-07-31T03:09:15;17.90;99.90
6008;DHT22;3032;49.484;11.112;2023-07-31T03:11:41;18.00;99.90
6008;DHT22;3032;49.484;11.112;2023-07-31T03:14:06;17.70;99.90
6008;DHT22;3032;49.484;11.112;2023-07-31T03:16:32;17.60;99.90
6008;DHT22;3032;49.484;11.112;2023-07-31T03:18:57;17.60;99.90
6008;DHT22;3032;49.484;11.112;2023-07-31T03:21:23;17.60;99.90
6008;DHT22;3032;49.484;11.112;2023-07-31T03:23:48;17.50;99.90
6008;DHT22;3032;49.484;11.112;2023-07-31T03:26:14;17.50;99.90
6008;DHT22;3032;49.484;11.112;2023-07-31T03:28:40;17.50;99.90
6008;DHT22;3032;49.484;11.112;2023-07-31T03:31:05;17.50;99.90
6008;DHT22;3032;49.484;11.112;2023-07-31T03:33:31;18.00;99.90
6008;DHT22;3032;49.484;11.112;2023-07-31T03:35:57;17.50;99.90
6008;DHT22;3032;49.484;11.112;2023-07-31T03:38:22;17.40;99.90
6008;DHT22;3032;49.484;11.112;2023-07-31T03:40:48;17.60;99.90
6008;DHT22;3032;49.484;11.112;2023-07-31T03:43:15;17.60;99.90
6008;DHT22;3032;49.484;11.112;2023-07-31T03:45:41;17.60;99.90
6008;DHT22;3032;49.484;11.112;2023-07-31T03:48:06;17.50;99.90
6008;DHT22;3032;49.484;11.112;2023-07-31T03:50:33;17.60;99.90
6008;DHT22;3032;49.484;11.112;2023-07-31T03:52:58;17.50;99.90
6008;DHT22;3032;49.484;11.112;2023-07-31T03:55:24;17.60;99.90
6008;DHT22;3032;49.484;11.112;2023-07-31T03:57:49;17.90;99.90
6008;DHT22;3032;49.484;11.112;2023-07-31T04:00:15;17.90;99.90
6008;DHT22;3032;49.484;11.112;2023-07-31T04:02:40;17.70;99.90
6008;DHT22;3032;49.484;11.112;2023-07-31T04:05:07;17.80;99.90
6008;DHT22;3032;49.484;11.112;2023-07-31T04:07:33;18.10;99.90
6008;DHT22;3032;49.484;11.112;2023-07-31T04:09:59;18.70;99.90
6008;DHT22;3032;49.484;11.112;2023-07-31T04:12:28;18.20;99.90
6008;DHT22;3032;49.484;11.112;2023-07-31T04:14:53;18.00;99.90
6008;DHT22;3032;49.484;11.112;2023-07-31T04:17:19;17.70;99.90
6008;DHT22;3032;49.484;11.112;2023-07-31T04:19:44;17.60;99.90
6008;DHT22;3032;49.484;11.112;2023-07-31T04:22:10;17.40;99.90
6008;DHT22;3032;49.484;11.112;2023-07-31T04:24:35;17.30;99.90
6008;DHT22;3032;49.484;11.112;2023-07-31T04:27:01;17.40;99.90
6008;DHT22;3032;49.484;11.112;2023-07-31T04:29:26;17.70;99.90
6008;DHT22;3032;49.484;11.112;2023-07-31T04:31:52;17.60;99.90
6008;DHT22;3032;49.484;11.112;2023-07-31T04:34:17;18.00;99.90
6008;DHT22;3032;49.484;11.112;2023-07-31T04:36:43;17.60;99.90
6008;DHT22;3032;49.484;11.112;2023-07-31T04:39:09;17.60;99.90
6008;DHT22;3032;49.484;11.112;2023-07-31T04:41:34;17.90;99.90
6008;DHT22;3032;49.484;11.112;2023-07-31T04:44:01;17.80;99.90
6008;DHT22;3032;49.484;11.112;2023-07-31T04:46:27;17.60;99.90
6008;DHT22;3032;49.484;11.112;2023-07-31T04:48:52;17.60;99.90
6008;DHT22;3032;49.484;11.112;2023-07-31T04:51:18;17.80;99.90
6008;DHT22;3032;49.484;11.112;2023-07-31T04:53:43;18.10;99.90
6008;DHT22;3032;49.484;11.112;2023-07-31T04:56:09;18.10;99.90
6008;DHT22;3032;49.484;11.112;2023-07-31T04:58:34;18.10;99.90
6008;DHT22;3032;49.484;11.112;2023-07-31T05:01:00;18.10;99.90
6008;DHT22;3032;49.484;11.112;2023-07-31T05:03:26;18.00;99.90
6008;DHT22;3032;49.484;11.112;2023-07-31T05:05:51;18.00;99.90
6008;DHT22;3032;49.484;11.112;2023-07-31T05:08:17;17.90;99.90
6008;DHT22;3032;49.484;11.112;2023-07-31T05:10:45;18.30;99.90
6008;DHT22;3032;49.484;11.112;2023-07-31T05:13:11;17.80;99.90
6008;DHT22;3032;49.484;11.112;2023-07-31T05:15:36;17.70;99.90
6008;DHT22;3032;49.484;11.112;2023-07-31T05:18:02;17.40;99.90
6008;DHT22;3032;49.484;11.112;2023-07-31T05:20:27;17.20;99.90
6008;DHT22;3032;49.484;11.112;2023-07-31T05:22:53;17.50;99.90
6008;DHT22;3032;49.484;11.112;2023-07-31T05:25:18;17.70;99.90
6008;DHT22;3032;49.484;11.112;2023-07-31T05:27:44;17.80;99.90
6008;DHT22;3032;49.484;11.112;2023-07-31T05:30:10;17.80;99.90
6008;DHT22;3032;49.484;11.112;2023-07-31T05:32:35;17.70;99.90
6008;DHT22;3032;49.484;11.112;2023-07-31T05:35:01;17.80;99.90
6008;DHT22;3032;49.484;11.112;2023-07-31T05:37:26;18.10;99.90
6008;DHT22;3032;49.484;11.112;2023-07-31T05:39:52;18.40;99.90
6008;DHT22;3032;49.484;11.112;2023-07-31T05:42:18;19.40;99.90
6008;DHT22;3032;49.484;11.112;2023-07-31T05:44:43;19.30;99.90
6008;DHT22;3032;49.484;11.112;2023-07-31T05:47:09;19.30;99.90
6008;DHT22;3032;49.484;11.112;2023-07-31T05:49:34;19.40;99.90
6008;DHT22;3032;49.484;11.112;2023-07-31T05:52:00;19.50;99.90
6008;DHT22;3032;49.484;11.112;2023-07-31T05:54:25;19.70;99.90
6008;DHT22;3032;49.484;11.112;2023-07-31T05:56:51;19.60;99.90
6008;DHT22;3032;49.484;11.112;2023-07-31T05:59:17;19.70;99.90
6008;DHT22;3032;49.484;11.112;2023-07-31T06:01:42;19.50;99.90
6008;DHT22;3032;49.484;11.112;2023-07-31T06:04:08;19.10;99.90
6008;DHT22;3032;49.484;11.112;2023-07-31T06:06:34;19.80;99.90
6008;DHT22;3032;49.484;11.112;2023-07-31T06:08:59;19.50;99.90
6008;DHT22;3032;49.484;11.112;2023-07-31T06:11:25;20.10;99.90
6008;DHT22;3032;49.484;11.112;2023-07-31T06:13:50;19.00;99.90
6008;DHT22;3032;49.484;11.112;2023-07-31T06:16:16;19.00;99.90
6008;DHT22;3032;49.484;11.112;2023-07-31T06:18:42;19.40;99.90
6008;DHT22;3032;49.484;11.112;2023-07-31T06:21:08;19.80;99.90
6008;DHT22;3032;49.484;11.112;2023-07-31T06:23:34;19.50;99.90
6008;DHT22;3032;49.484;11.112;2023-07-31T06:26:00;19.80;99.90
6008;DHT22;3032;49.484;11.112;2023-07-31T06:28:30;20.30;99.90
6008;DHT22;3032;49.484;11.112;2023-07-31T06:30:56;20.40;99.90
6008;DHT22;3032;49.484;11.112;2023-07-31T06:33:22;20.10;99.90
6008;DHT22;3032;49.484;11.112;2023-07-31T06:35:47;21.00;99.90
6008;DHT22;3032;49.484;11.112;2023-07-31T06:38:13;21.00;99.90
6008;DHT22;3032;49.484;11.112;2023-07-31T06:40:38;21.50;99.90
6008;DHT22;3032;49.484;11.112;2023-07-31T06:43:04;21.90;99.90
6008;DHT22;3032;49.484;11.112;2023-07-31T06:45:36;22.30;99.90
6008;DHT22;3032;49.484;11.112;2023-07-31T06:48:02;23.00;99.90
6008;DHT22;3032;49.484;11.112;2023-07-31T06:50:29;22.00;99.90
6008;DHT22;3032;49.484;11.112;2023-07-31T06:52:55;21.10;99.90
6008;DHT22;3032;49.484;11.112;2023-07-31T06:55:21;20.80;99.90
6008;DHT22;3032;49.484;11.112;2023-07-31T06:57:51;21.00;99.90
6008;DHT22;3032;49.484;11.112;2023-07-31T07:00:18;21.90;99.90
6008;DHT22;3032;49.484;11.112;2023-07-31T07:02:44;21.20;99.90
6008;DHT22;3032;49.484;11.112;2023-07-31T07:05:12;21.50;99.90
6008;DHT22;3032;49.484;11.112;2023-07-31T07:07:38;22.30;99.90
6008;DHT22;3032;49.484;11.112;2023-07-31T07:10:04;22.50;99.90
6008;DHT22;3032;49.484;11.112;2023-07-31T07:12:31;22.80;99.90
6008;DHT22;3032;49.484;11.112;2023-07-31T07:14:58;23.40;99.90
6008;DHT22;3032;49.484;11.112;2023-07-31T07:17:24;23.00;99.90
6008;DHT22;3032;49.484;11.112;2023-07-31T07:19:50;23.20;99.90
6008;DHT22;3032;49.484;11.112;2023-07-31T07:22:15;22.90;99.90
6008;DHT22;3032;49.484;11.112;2023-07-31T07:24:41;23.00;99.90
6008;DHT22;3032;49.484;11.112;2023-07-31T07:27:07;22.80;99.90
6008;DHT22;3032;49.484;11.112;2023-07-31T07:29:34;23.10;99.90
6008;DHT22;3032;49.484;11.112;2023-07-31T07:32:00;23.50;99.90
6008;DHT22;3032;49.484;11.112;2023-07-31T07:34:27;23.90;99.90
6008;DHT22;3032;49.484;11.112;2023-07-31T07:36:53;23.80;99.90
6008;DHT22;3032;49.484;11.112;2023-07-31T07:39:19;23.90;99.80
6008;DHT22;3032;49.484;11.112;2023-07-31T07:41:46;24.20;99.60
6008;DHT22;3032;49.484;11.112;2023-07-31T07:44:12;23.80;99.20
6008;DHT22;3032;49.484;11.112;2023-07-31T07:46:38;23.70;99.80
6008;DHT22;3032;49.484;11.112;2023-07-31T07:49:03;24.20;99.90
6008;DHT22;3032;49.484;11.112;2023-07-31T07:51:29;23.00;99.80
6008;DHT22;3032;49.484;11.112;2023-07-31T07:53:59;22.90;99.50
6008;DHT22;3032;49.484;11.112;2023-07-31T07:56:26;22.90;99.90
6008;DHT22;3032;49.484;11.112;2023-07-31T07:58:53;23.00;99.70
6008;DHT22;3032;49.484;11.112;2023-07-31T08:01:18;23.10;99.50
6008;DHT22;3032;49.484;11.112;2023-07-31T08:03:44;23.00;99.90
6008;DHT22;3032;49.484;11.112;2023-07-31T08:06:10;23.40;99.90
6008;DHT22;3032;49.484;11.112;2023-07-31T08:08:36;23.60;99.10
6008;DHT22;3032;49.484;11.112;2023-07-31T08:11:02;24.20;98.50
6008;DHT22;3032;49.484;11.112;2023-07-31T08:13:28;24.70;98.60
6008;DHT22;3032;49.484;11.112;2023-07-31T08:15:53;25.20;97.10
6008;DHT22;3032;49.484;11.112;2023-07-31T08:18:19;25.30;96.80
6008;DHT22;3032;49.484;11.112;2023-07-31T08:20:45;25.60;96.70
6008;DHT22;3032;49.484;11.112;2023-07-31T08:23:11;26.10;95.70
6008;DHT22;3032;49.484;11.112;2023-07-31T08:25:37;26.50;95.80
6008;DHT22;3032;49.484;11.112;2023-07-31T08:28:03;26.90;93.60
6008;DHT22;3032;49.484;11.112;2023-07-31T08:30:29;27.00;93.10
6008;DHT22;3032;49.484;11.112;2023-07-31T08:32:55;27.10;93.40
6008;DHT22;3032;49.484;11.112;2023-07-31T08:35:21;27.80;92.60
6008;DHT22;3032;49.484;11.112;2023-07-31T08:37:46;27.80;93.00
6008;DHT22;3032;49.484;11.112;2023-07-31T08:40:12;29.30;90.40
6008;DHT22;3032;49.484;11.112;2023-07-31T08:42:50;31.00;88.70
6008;DHT22;3032;49.484;11.112;2023-07-31T08:45:17;31.50;82.90
6008;DHT22;3032;49.484;11.112;2023-07-31T08:47:48;30.80;81.50
6008;DHT22;3032;49.484;11.112;2023-07-31T08:50:16;30.70;81.70
6008;DHT22;3032;49.484;11.112;2023-07-31T08:52:42;30.40;80.80
6008;DHT22;3032;49.484;11.112;2023-07-31T08:55:09;29.70;81.90
6008;DHT22;3032;49.484;11.112;2023-07-31T08:57:36;30.60;83.50
6008;DHT22;3032;49.484;11.112;2023-07-31T09:00:03;32.00;79.30
6008;DHT22;3032;49.484;11.112;2023-07-31T09:02:34;32.40;74.60
6008;DHT22;3032;49.484;11.112;2023-07-31T09:05:02;32.80;74.80
6008;DHT22;3032;49.484;11.112;2023-07-31T09:07:29;33.70;69.40
6008;DHT22;3032;49.484;11.112;2023-07-31T09:09:55;34.40;69.00
6008;DHT22;3032;49.484;11.112;2023-07-31T09:12:21;35.20;68.40
6008;DHT22;3032;49.484;11.112;2023-07-31T09:14:47;36.10;64.90
6008;DHT22;3032;49.484;11.112;2023-07-31T09:17:12;37.00;64.00
6008;DHT22;3032;49.484;11.112;2023-07-31T09:19:38;37.80;61.60
6008;DHT22;3032;49.484;11.112;2023-07-31T09:22:05;38.60;57.70
6008;DHT22;3032;49.484;11.112;2023-07-31T09:24:32;38.80;57.20
6008;DHT22;3032;49.484;11.112;2023-07-31T09:27:00;38.00;55.50
6008;DHT22;3032;49.484;11.112;2023-07-31T09:29:26;38.20;54.80
6008;DHT22;3032;49.484;11.112;2023-07-31T09:31:53;38.40;54.30
6008;DHT22;3032;49.484;11.112;2023-07-31T09:34:19;38.40;54.40
6008;DHT22;3032;49.484;11.112;2023-07-31T09:36:49;37.20;54.80
6008;DHT22;3032;49.484;11.112;2023-07-31T09:39:16;37.00;54.40
6008;DHT22;3032;49.484;11.112;2023-07-31T09:41:44;35.80;54.00
6008;DHT22;3032;49.484;11.112;2023-07-31T09:44:10;34.70;57.20
6008;DHT22;3032;49.484;11.112;2023-07-31T09:46:36;34.80;56.10
6008;DHT22;3032;49.484;11.112;2023-07-31T09:49:10;33.90;56.30
6008;DHT22;3032;49.484;11.112;2023-07-31T09:51:40;33.00;57.60
6008;DHT22;3032;49.484;11.112;2023-07-31T09:54:13;32.50;60.10
6008;DHT22;3032;49.484;11.112;2023-07-31T09:56:45;32.30;60.50
6008;DHT22;3032;49.484;11.112;2023-07-31T09:59:13;32.00;61.30
6008;DHT22;3032;49.484;11.112;2023-07-31T10:01:40;32.70;62.60
6008;DHT22;3032;49.484;11.112;2023-07-31T10:04:08;32.20;60.00
6008;DHT22;3032;49.484;11.112;2023-07-31T10:06:35;31.80;62.00
6008;DHT22;3032;49.484;11.112;2023-07-31T10:09:03;32.00;63.70
6008;DHT22;3032;49.484;11.112;2023-07-31T10:11:29;31.90;64.80
6008;DHT22;3032;49.484;11.112;2023-07-31T10:13:55;31.80;62.10
6008;DHT22;3032;49.484;11.112;2023-07-31T10:16:22;31.40;59.90
6008;DHT22;3032;49.484;11.112;2023-07-31T10:18:49;31.20;62.40
6008;DHT22;3032;49.484;11.112;2023-07-31T10:21:15;31.60;66.80
6008;DHT22;3032;49.484;11.112;2023-07-31T10:23:42;31.60;63.50
6008;DHT22;3032;49.484;11.112;2023-07-31T10:26:08;31.30;64.60
6008;DHT22;3032;49.484;11.112;2023-07-31T10:28:36;30.90;63.60
6008;DHT22;3032;49.484;11.112;2023-07-31T10:31:03;30.60;64.50
6008;DHT22;3032;49.484;11.112;2023-07-31T10:33:29;30.40;63.50
6008;DHT22;3032;49.484;11.112;2023-07-31T10:36:18;30.10;64.60
6008;DHT22;3032;49.484;11.112;2023-07-31T10:38:45;29.50;67.80
6008;DHT22;3032;49.484;11.112;2023-07-31T10:41:10;29.30;65.70
6008;DHT22;3032;49.484;11.112;2023-07-31T10:43:37;29.40;66.90
6008;DHT22;3032;49.484;11.112;2023-07-31T10:46:11;29.90;66.80
6008;DHT22;3032;49.484;11.112;2023-07-31T10:48:39;30.80;65.90
6008;DHT22;3032;49.484;11.112;2023-07-31T10:51:08;32.50;63.10
6008;DHT22;3032;49.484;11.112;2023-07-31T10:53:36;32.80;62.50
6008;DHT22;3032;49.484;11.112;2023-07-31T10:56:06;32.20;59.70
6008;DHT22;3032;49.484;11.112;2023-07-31T10:58:33;32.30;61.70
6008;DHT22;3032;49.484;11.112;2023-07-31T11:01:00;32.40;63.30
6008;DHT22;3032;49.484;11.112;2023-07-31T11:03:41;32.40;60.00
6008;DHT22;3032;49.484;11.112;2023-07-31T11:06:08;32.30;60.40
6008;DHT22;3032;49.484;11.112;2023-07-31T11:08:35;32.40;61.70
6008;DHT22;3032;49.484;11.112;2023-07-31T11:11:07;32.20;62.10
6008;DHT22;3032;49.484;11.112;2023-07-31T11:16:09;31.70;59.60
6008;DHT22;3032;49.484;11.112;2023-07-31T11:18:35;31.30;62.40
6008;DHT22;3032;49.484;11.112;2023-07-31T11:21:01;30.40;63.80
6008;DHT22;3032;49.484;11.112;2023-07-31T11:23:26;29.80;63.60
6008;DHT22;3032;49.484;11.112;2023-07-31T11:25:52;29.30;64.90
6008;DHT22;3032;49.484;11.112;2023-07-31T11:28:19;28.90;66.30
6008;DHT22;3032;49.484;11.112;2023-07-31T11:30:45;28.10;64.50
6008;DHT22;3032;49.484;11.112;2023-07-31T11:33:13;27.40;69.20
6008;DHT22;3032;49.484;11.112;2023-07-31T11:35:47;27.20;68.50
6008;DHT22;3032;49.484;11.112;2023-07-31T11:38:25;26.90;70.80
6008;DHT22;3032;49.484;11.112;2023-07-31T11:40:56;26.80;71.30
6008;DHT22;3032;49.484;11.112;2023-07-31T11:43:22;26.60;72.90
6008;DHT22;3032;49.484;11.112;2023-07-31T11:45:49;27.00;70.70
6008;DHT22;3032;49.484;11.112;2023-07-31T11:48:29;26.70;71.00
6008;DHT22;3032;49.484;11.112;2023-07-31T11:51:02;26.30;70.40
6008;DHT22;3032;49.484;11.112;2023-07-31T11:53:38;26.20;71.30
6008;DHT22;3032;49.484;11.112;2023-07-31T11:56:04;26.30;71.40
6008;DHT22;3032;49.484;11.112;2023-07-31T11:58:31;26.50;72.80
6008;DHT22;3032;49.484;11.112;2023-07-31T12:00:59;27.10;71.00
6008;DHT22;3032;49.484;11.112;2023-07-31T12:03:25;27.90;71.10
6008;DHT22;3032;49.484;11.112;2023-07-31T12:05:53;28.30;69.60
6008;DHT22;3032;49.484;11.112;2023-07-31T12:08:21;28.20;70.70
6008;DHT22;3032;49.484;11.112;2023-07-31T12:10:46;28.40;71.00
6008;DHT22;3032;49.484;11.112;2023-07-31T12:13:26;28.50;68.50
6008;DHT22;3032;49.484;11.112;2023-07-31T12:15:57;28.20;68.50
6008;DHT22;3032;49.484;11.112;2023-07-31T12:18:24;28.40;68.90
6008;DHT22;3032;49.484;11.112;2023-07-31T12:20:58;27.80;69.00
6008;DHT22;3032;49.484;11.112;2023-07-31T12:23:29;27.50;69.70
6008;DHT22;3032;49.484;11.112;2023-07-31T12:26:08;27.30;70.50
6008;DHT22;3032;49.484;11.112;2023-07-31T12:28:41;27.40;71.60
6008;DHT22;3032;49.484;11.112;2023-07-31T12:31:09;27.80;72.10
6008;DHT22;3032;49.484;11.112;2023-07-31T12:33:36;28.20;69.90
6008;DHT22;3032;49.484;11.112;2023-07-31T12:36:06;28.40;68.80
6008;DHT22;3032;49.484;11.112;2023-07-31T12:38:33;28.00;69.20
6008;DHT22;3032;49.484;11.112;2023-07-31T12:40:59;28.20;68.90
6008;DHT22;3032;49.484;11.112;2023-07-31T12:43:24;28.40;70.60
6008;DHT22;3032;49.484;11.112;2023-07-31T12:45:50;28.40;68.90
6008;DHT22;3032;49.484;11.112;2023-07-31T12:48:16;28.10;70.40
6008;DHT22;3032;49.484;11.112;2023-07-31T12:50:41;28.10;69.70
6008;DHT22;3032;49.484;11.112;2023-07-31T12:53:07;28.10;70.30
6008;DHT22;3032;49.484;11.112;2023-07-31T12:55:33;28.60;70.40
6008;DHT22;3032;49.484;11.112;2023-07-31T12:58:00;28.30;69.40
6008;DHT22;3032;49.484;11.112;2023-07-31T13:00:26;28.40;69.60
6008;DHT22;3032;49.484;11.112;2023-07-31T13:02:52;28.60;69.70
6008;DHT22;3032;49.484;11.112;2023-07-31T13:05:17;28.70;68.80
6008;DHT22;3032;49.484;11.112;2023-07-31T13:07:45;28.80;67.70
6008;DHT22;3032;49.484;11.112;2023-07-31T13:10:10;29.10;67.40
6008;DHT22;3032;49.484;11.112;2023-07-31T13:12:36;29.20;68.40
6008;DHT22;3032;49.484;11.112;2023-07-31T13:15:02;29.00;67.10
6008;DHT22;3032;49.484;11.112;2023-07-31T13:17:28;29.10;68.40
6008;DHT22;3032;49.484;11.112;2023-07-31T13:19:53;29.20;69.70
6008;DHT22;3032;49.484;11.112;2023-07-31T13:22:19;29.20;66.70
6008;DHT22;3032;49.484;11.112;2023-07-31T13:24:44;29.50;67.10
6008;DHT22;3032;49.484;11.112;2023-07-31T13:27:10;29.40;66.50
6008;DHT22;3032;49.484;11.112;2023-07-31T13:29:35;29.30;66.80
6008;DHT22;3032;49.484;11.112;2023-07-31T13:32:01;28.80;66.90
6008;DHT22;3032;49.484;11.112;2023-07-31T13:34:27;29.00;66.90
6008;DHT22;3032;49.484;11.112;2023-07-31T13:36:54;29.70;68.40
6008;DHT22;3032;49.484;11.112;2023-07-31T13:39:20;30.10;65.80
6008;DHT22;3032;49.484;11.112;2023-07-31T13:41:46;30.20;65.50
6008;DHT22;3032;49.484;11.112;2023-07-31T13:44:11;30.30;63.40
6008;DHT22;3032;49.484;11.112;2023-07-31T13:46:37;30.10;65.40
6008;DHT22;3032;49.484;11.112;2023-07-31T13:49:02;30.10;66.40
6008;DHT22;3032;49.484;11.112;2023-07-31T13:51:28;30.00;65.30
6008;DHT22;3032;49.484;11.112;2023-07-31T13:53:54;29.90;66.20
6008;DHT22;3032;49.484;11.112;2023-07-31T13:56:19;29.70;65.00
6008;DHT22;3032;49.484;11.112;2023-07-31T13:58:45;30.00;68.50
6008;DHT22;3032;49.484;11.112;2023-07-31T14:01:10;30.10;67.60
6008;DHT22;3032;49.484;11.112;2023-07-31T14:03:36;30.00;65.70
6008;DHT22;3032;49.484;11.112;2023-07-31T14:06:01;29.70;64.30
6008;DHT22;3032;49.484;11.112;2023-07-31T14:08:27;29.30;66.40
6008;DHT22;3032;49.484;11.112;2023-07-31T14:10:53;29.00;66.10
6008;DHT22;3032;49.484;11.112;2023-07-31T14:13:18;29.00;66.60
6008;DHT22;3032;49.484;11.112;2023-07-31T14:15:44;29.10;67.40
6008;DHT22;3032;49.484;11.112;2023-07-31T14:18:10;29.20;66.90
6008;DHT22;3032;49.484;11.112;2023-07-31T14:20:35;28.90;65.50
6008;DHT22;3032;49.484;11.112;2023-07-31T14:23:02;28.90;66.80
6008;DHT22;3032;49.484;11.112;2023-07-31T14:25:28;28.80;66.80
6008;DHT22;3032;49.484;11.112;2023-07-31T14:27:53;28.00;71.20
6008;DHT22;3032;49.484;11.112;2023-07-31T14:30:19;28.10;68.30
6008;DHT22;3032;49.484;11.112;2023-07-31T14:32:45;27.90;68.60
6008;DHT22;3032;49.484;11.112;2023-07-31T14:35:11;27.80;67.70
6008;DHT22;3032;49.484;11.112;2023-07-31T14:37:40;27.70;68.30
6008;DHT22;3032;49.484;11.112;2023-07-31T14:40:08;27.70;67.00
6008;DHT22;3032;49.484;11.112;2023-07-31T14:42:35;27.50;68.10
6008;DHT22;3032;49.484;11.112;2023-07-31T14:45:01;28.00;68.30
6008;DHT22;3032;49.484;11.112;2023-07-31T14:47:26;27.50;68.80
6008;DHT22;3032;49.484;11.112;2023-07-31T14:49:52;27.40;69.10
6008;DHT22;3032;49.484;11.112;2023-07-31T14:52:17;27.30;69.60
6008;DHT22;3032;49.484;11.112;2023-07-31T14:54:44;27.60;70.80
6008;DHT22;3032;49.484;11.112;2023-07-31T14:57:10;26.60;71.70
6008;DHT22;3032;49.484;11.112;2023-07-31T14:59:36;26.70;70.30
6008;DHT22;3032;49.484;11.112;2023-07-31T15:02:01;26.70;71.00
6008;DHT22;3032;49.484;11.112;2023-07-31T15:04:27;26.70;70.80
6008;DHT22;3032;49.484;11.112;2023-07-31T15:06:53;26.50;71.30
6008;DHT22;3032;49.484;11.112;2023-07-31T15:09:19;26.60;71.70
6008;DHT22;3032;49.484;11.112;2023-07-31T15:11:44;26.80;71.50
6008;DHT22;3032;49.484;11.112;2023-07-31T15:14:10;26.50;71.60
6008;DHT22;3032;49.484;11.112;2023-07-31T15:16:35;26.20;71.10
6008;DHT22;3032;49.484;11.112;2023-07-31T15:19:01;26.00;72.30
6008;DHT22;3032;49.484;11.112;2023-07-31T15:21:26;26.30;72.60
6008;DHT22;3032;49.484;11.112;2023-07-31T15:23:52;26.20;72.80
6008;DHT22;3032;49.484;11.112;2023-07-31T15:26:18;26.00;73.20
6008;DHT22;3032;49.484;11.112;2023-07-31T15:28:49;26.00;73.20
6008;DHT22;3032;49.484;11.112;2023-07-31T15:31:14;26.00;72.80
6008;DHT22;3032;49.484;11.112;2023-07-31T15:33:40;26.30;73.60
6008;DHT22;3032;49.484;11.112;2023-07-31T15:36:05;26.00;73.10
6008;DHT22;3032;49.484;11.112;2023-07-31T15:38:31;26.00;72.70
6008;DHT22;3032;49.484;11.112;2023-07-31T15:40:57;26.10;73.40
6008;DHT22;3032;49.484;11.112;2023-07-31T15:43:23;26.10;73.00
6008;DHT22;3032;49.484;11.112;2023-07-31T15:45:48;26.00;73.30
6008;DHT22;3032;49.484;11.112;2023-07-31T15:48:14;25.90;75.00
6008;DHT22;3032;49.484;11.112;2023-07-31T15:50:39;25.90;75.20